Time;durP1;ratioP1;P1;durP2;ratioP2;P2;SDS_P1;SDS_P2;PMS_P1;PMS_P2;Temp;Humidity;BMP_temperature;BMP_pressure;BME280_temperature;BME280_humidity;BME280_pressure;Samples;Min_cycle;Max_cycle;Signal;HPM_P1;HPM_P2
2022/05/22 00:00:20;;;;;;;2.45;1.85;;;13.00;99.90;;;;;;4933875;29;20036;-77
2022/05/22 00:02:46;;;;;;;2.13;2.03;;;13.00;99.90;;;;;;4932384;29;20099;-77
2022/05/22 00:05:15;;;;;;;4.55;1.85;;;13.00;99.90;;;;;;4931579;29;20620;-77
2022/05/22 00:07:41;;;;;;;1.88;1.73;;;12.90;99.90;;;;;;4933278;29;20086;-77
2022/05/22 00:10:08;;;;;;;4.03;2.30;;;13.00;99.90;;;;;;4929375;29;20031;-77
2022/05/22 00:12:34;;;;;;;2.35;2.03;;;13.00;99.90;;;;;;4929948;29;20035;-77
2022/05/22 00:15:00;;;;;;;2.58;2.03;;;12.90;99.90;;;;;;4931653;29;20023;-77
2022/05/22 00:17:25;;;;;;;2.63;2.08;;;12.90;99.90;;;;;;4933133;29;20038;-78
2022/05/22 00:19:51;;;;;;;4.20;1.90;;;12.90;99.90;;;;;;4932997;29;20457;-77
2022/05/22 00:22:17;;;;;;;2.05;1.75;;;12.90;99.90;;;;;;4931536;29;20063;-78
2022/05/22 00:24:43;;;;;;;5.35;2.00;;;12.80;99.90;;;;;;4932410;29;20032;-78
2022/05/22 00:27:09;;;;;;;2.22;1.95;;;12.80;99.90;;;;;;4931757;29;20480;-78
2022/05/22 00:29:36;;;;;;;3.28;2.08;;;12.80;99.90;;;;;;4930193;29;20050;-78
2022/05/22 00:32:02;;;;;;;2.58;2.13;;;12.80;99.90;;;;;;4929162;29;20502;-78
2022/05/22 00:34:28;;;;;;;2.72;2.00;;;12.70;99.90;;;;;;4929508;29;20035;-77
2022/05/22 00:36:54;;;;;;;2.13;1.70;;;12.70;99.90;;;;;;4912348;29;20031;-77
2022/05/22 00:39:19;;;;;;;2.25;1.80;;;12.60;99.90;;;;;;4933053;29;20435;-77
2022/05/22 00:41:52;;;;;;;2.58;2.00;;;12.50;99.90;;;;;;4928983;29;20422;-77
2022/05/22 00:44:19;;;;;;;1.95;1.83;;;12.40;99.90;;;;;;4929954;29;20031;-77
2022/05/22 00:46:45;;;;;;;2.40;2.20;;;12.40;99.90;;;;;;4930522;29;20032;-77
2022/05/22 00:49:24;;;;;;;2.65;2.20;;;12.50;99.90;;;;;;4929194;29;20027;-78
2022/05/22 00:52:04;;;;;;;2.45;2.00;;;12.50;99.90;;;;;;4931894;29;20127;-77
2022/05/22 00:54:50;;;;;;;2.38;2.17;;;12.50;99.90;;;;;;4929021;29;20050;-77
2022/05/22 00:57:24;;;;;;;2.78;2.58;;;12.50;99.90;;;;;;4932517;29;20473;-77
2022/05/22 00:59:54;;;;;;;2.40;2.20;;;12.20;99.90;;;;;;4933292;29;20032;-77
2022/05/22 01:02:20;;;;;;;2.53;2.33;;;12.20;99.90;;;;;;4927794;29;20458;-77
2022/05/22 01:04:49;;;;;;;2.65;2.45;;;12.30;99.90;;;;;;4931075;29;20043;-77
2022/05/22 01:07:15;;;;;;;3.72;2.28;;;12.30;99.90;;;;;;4930989;29;20059;-77
2022/05/22 01:09:41;;;;;;;5.05;2.20;;;12.30;99.90;;;;;;4930904;29;20043;-77
2022/05/22 01:12:13;;;;;;;2.33;2.13;;;12.30;99.90;;;;;;4927528;29;20134;-78
2022/05/22 01:14:39;;;;;;;4.15;2.28;;;12.40;99.90;;;;;;4931506;29;20071;-77
2022/05/22 01:17:09;;;;;;;2.35;2.15;;;12.30;99.90;;;;;;4930728;29;20078;-77
2022/05/22 01:19:35;;;;;;;3.38;2.30;;;12.30;99.90;;;;;;4931603;29;20036;-77
2022/05/22 01:22:08;;;;;;;3.20;2.50;;;12.30;99.90;;;;;;4930171;29;20048;-77
2022/05/22 01:24:35;;;;;;;2.90;2.60;;;12.30;99.90;;;;;;4931233;29;20035;-77
2022/05/22 01:27:04;;;;;;;3.22;2.28;;;12.00;99.90;;;;;;4930769;29;20152;-78
2022/05/22 01:29:29;;;;;;;3.00;2.38;;;12.10;99.90;;;;;;4932796;29;20027;-77
2022/05/22 01:31:55;;;;;;;3.28;2.38;;;12.10;99.90;;;;;;4930838;28;20043;-77
2022/05/22 01:34:21;;;;;;;2.42;2.20;;;12.10;99.90;;;;;;4928596;29;20032;-77
2022/05/22 01:36:46;;;;;;;3.25;2.22;;;12.10;99.90;;;;;;4930314;29;20032;-77
2022/05/22 01:39:12;;;;;;;2.47;2.25;;;12.00;99.90;;;;;;4930804;29;20062;-77
2022/05/22 01:41:38;;;;;;;2.25;2.15;;;11.90;99.90;;;;;;4932001;29;20123;-77
2022/05/22 01:44:04;;;;;;;3.08;2.17;;;12.00;99.90;;;;;;4930120;29;20163;-77
2022/05/22 01:46:30;;;;;;;3.20;2.75;;;12.00;99.90;;;;;;4923436;29;20407;-77
2022/05/22 01:48:56;;;;;;;2.20;2.00;;;11.90;99.90;;;;;;4929657;29;20032;-77
2022/05/22 01:51:22;;;;;;;3.53;2.40;;;11.90;99.90;;;;;;4929920;29;20059;-77
2022/05/22 01:53:48;;;;;;;3.85;2.25;;;12.00;99.90;;;;;;4929018;29;20122;-77
2022/05/22 01:56:13;;;;;;;3.38;2.50;;;11.90;99.90;;;;;;4934658;29;20035;-77
2022/05/22 01:58:39;;;;;;;2.22;2.13;;;11.90;99.90;;;;;;4931352;29;20465;-77
2022/05/22 02:01:07;;;;;;;2.25;2.05;;;11.90;99.90;;;;;;4931396;29;20456;-77
2022/05/22 02:03:33;;;;;;;;;;;11.90;99.90;;;;;;4932863;29;20047;-77
2022/05/22 02:05:59;;;;;;;2.58;2.35;;;11.90;99.90;;;;;;4932357;29;19914;-77
2022/05/22 02:08:24;;;;;;;2.92;2.38;;;11.80;99.90;;;;;;4935635;29;20047;-77
2022/05/22 02:10:54;;;;;;;3.95;2.53;;;11.90;99.90;;;;;;4931501;29;20095;-76
2022/05/22 02:13:24;;;;;;;2.38;2.28;;;11.80;99.90;;;;;;4930753;29;20375;-76
2022/05/22 02:15:50;;;;;;;2.75;2.25;;;11.80;99.90;;;;;;4938421;29;20031;-77
2022/05/22 02:18:16;;;;;;;2.47;2.22;;;11.70;99.90;;;;;;4934212;29;20527;-77
2022/05/22 02:20:42;;;;;;;3.53;2.30;;;11.70;99.90;;;;;;4937789;29;20110;-77
2022/05/22 02:23:08;;;;;;;4.13;2.20;;;11.70;99.90;;;;;;4931296;29;20045;-77
2022/05/22 02:25:36;;;;;;;3.35;2.38;;;11.70;99.90;;;;;;4930381;29;20383;-77
2022/05/22 02:28:05;;;;;;;2.40;2.17;;;11.80;99.90;;;;;;4931914;29;20040;-77
2022/05/22 02:30:34;;;;;;;3.90;2.58;;;11.70;99.90;;;;;;4933462;29;20039;-77
2022/05/22 02:33:00;;;;;;;5.65;2.80;;;11.70;99.90;;;;;;4931615;29;20036;-76
2022/05/22 02:35:26;;;;;;;2.40;2.20;;;11.60;99.90;;;;;;4934348;29;20035;-77
2022/05/22 02:37:54;;;;;;;2.13;2.03;;;11.60;99.90;;;;;;4931456;29;20565;-77
2022/05/22 02:40:22;;;;;;;3.90;2.05;;;11.70;99.90;;;;;;4935571;29;20043;-77
2022/05/22 02:42:49;;;;;;;;;;;11.60;99.90;;;;;;4931094;29;20066;-77
2022/05/22 02:45:17;;;;;;;2.55;2.35;;;11.70;99.90;;;;;;4933907;29;19931;-77
2022/05/22 02:47:43;;;;;;;2.65;2.45;;;11.60;99.90;;;;;;4932991;29;20463;-77
2022/05/22 02:50:10;;;;;;;2.50;2.30;;;11.60;99.90;;;;;;4933626;29;20036;-76
2022/05/22 02:52:36;;;;;;;2.50;2.30;;;11.50;99.90;;;;;;4929092;29;20038;-77
2022/05/22 02:55:03;;;;;;;3.70;2.60;;;11.50;99.90;;;;;;4930638;29;20099;-77
2022/05/22 02:57:32;;;;;;;2.70;2.50;;;11.50;99.90;;;;;;4932093;29;20032;-77
2022/05/22 02:59:57;;;;;;;;;;;11.50;99.90;;;;;;4933249;29;20055;-76
2022/05/22 03:02:23;;;;;;;2.88;2.63;;;11.50;99.90;;;;;;4931480;29;20777;-77
2022/05/22 03:04:49;;;;;;;4.15;2.67;;;11.40;99.90;;;;;;4932106;29;20062;-77
2022/05/22 03:07:17;;;;;;;4.38;2.72;;;11.30;99.90;;;;;;4933874;29;20515;-77
2022/05/22 03:09:44;;;;;;;;;;;11.30;99.90;;;;;;4934128;29;20034;-77
2022/05/22 03:12:12;;;;;;;2.45;2.25;;;11.40;99.90;;;;;;4931264;29;19918;-76
2022/05/22 03:14:42;;;;;;;2.92;2.20;;;11.40;99.90;;;;;;4915985;29;20032;-76
2022/05/22 03:17:07;;;;;;;2.30;2.10;;;11.40;99.90;;;;;;4934689;29;20042;-76
2022/05/22 03:19:33;;;;;;;2.67;2.47;;;11.40;99.90;;;;;;4936607;29;20106;-77
2022/05/22 03:21:59;;;;;;;3.40;2.45;;;11.50;99.90;;;;;;4934365;29;20035;-77
2022/05/22 03:24:24;;;;;;;3.63;2.40;;;11.40;99.90;;;;;;4932789;29;20023;-76
2022/05/22 03:26:50;;;;;;;2.10;2.00;;;11.40;99.90;;;;;;4933756;29;20122;-77
2022/05/22 03:29:15;;;;;;;2.50;2.25;;;11.40;99.90;;;;;;4933521;29;20035;-77
2022/05/22 03:31:41;;;;;;;2.70;2.50;;;11.30;99.90;;;;;;4939289;29;20454;-77
2022/05/22 03:34:07;;;;;;;2.33;2.13;;;11.30;99.90;;;;;;4932296;29;20837;-77
2022/05/22 03:36:32;;;;;;;2.38;2.17;;;11.40;99.90;;;;;;4936619;29;20090;-77
2022/05/22 03:38:58;;;;;;;3.58;2.10;;;11.40;99.90;;;;;;4934851;29;20063;-77
2022/05/22 03:41:23;;;;;;;5.50;2.33;;;11.30;99.90;;;;;;4930017;29;20040;-77
2022/05/22 03:43:51;;;;;;;2.47;2.20;;;11.30;99.90;;;;;;4911957;29;20047;-77
2022/05/22 03:46:16;;;;;;;2.28;2.10;;;11.40;99.90;;;;;;4931275;29;20356;-77
2022/05/22 03:48:42;;;;;;;5.22;2.70;;;11.40;99.90;;;;;;4935846;29;20042;-77
2022/05/22 03:51:08;;;;;;;2.90;2.28;;;11.40;99.90;;;;;;4934379;29;20058;-77
2022/05/22 03:53:34;;;;;;;2.30;2.10;;;11.50;99.90;;;;;;4934291;29;20512;-77
2022/05/22 03:56:07;;;;;;;3.33;2.55;;;11.50;99.90;;;;;;4936016;29;20035;-77
2022/05/22 03:58:33;;;;;;;2.20;2.10;;;11.50;99.90;;;;;;4932004;29;20110;-77
2022/05/22 04:00:59;;;;;;;2.92;2.63;;;11.50;99.90;;;;;;4928645;28;20119;-77
2022/05/22 04:03:24;;;;;;;2.53;2.33;;;11.60;99.90;;;;;;4915628;29;20039;-77
2022/05/22 04:05:50;;;;;;;2.70;2.50;;;11.60;99.90;;;;;;4930094;29;20043;-77
2022/05/22 04:08:16;;;;;;;2.50;2.30;;;11.60;99.90;;;;;;4930083;29;20459;-77
2022/05/22 04:10:41;;;;;;;3.35;2.47;;;11.70;99.90;;;;;;4933250;29;20056;-76
2022/05/22 04:13:07;;;;;;;2.33;2.15;;;11.70;99.90;;;;;;4935946;29;20047;-77
2022/05/22 04:15:32;;;;;;;2.78;2.45;;;11.70;99.90;;;;;;4932264;29;20292;-77
2022/05/22 04:17:58;;;;;;;2.97;2.50;;;11.70;99.90;;;;;;4933367;29;20066;-77
2022/05/22 04:20:24;;;;;;;4.07;2.35;;;11.70;99.90;;;;;;4932555;29;20035;-77
2022/05/22 04:25:34;;;;;;;3.30;2.47;;;11.70;99.90;;;;;;4927920;29;20502;-77
2022/05/22 04:28:00;;;;;;;2.42;2.05;;;11.70;99.90;;;;;;4933670;29;20044;-77
2022/05/22 04:30:25;;;;;;;2.60;2.40;;;11.80;99.90;;;;;;4932053;29;20050;-77
2022/05/22 04:32:52;;;;;;;3.63;2.75;;;11.80;99.90;;;;;;4931998;29;20048;-77
2022/05/22 04:35:19;;;;;;;2.97;2.78;;;11.90;99.90;;;;;;4927656;29;20024;-77
2022/05/22 04:37:46;;;;;;;2.92;2.63;;;11.70;99.90;;;;;;4934856;29;20502;-77
2022/05/22 04:40:12;;;;;;;2.30;2.08;;;11.80;99.90;;;;;;4933976;29;20126;-77
2022/05/22 04:42:39;;;;;;;4.90;2.88;;;11.90;99.90;;;;;;4933965;29;20053;-77
2022/05/22 04:45:07;;;;;;;2.30;2.20;;;11.80;99.90;;;;;;4935576;29;20039;-77
2022/05/22 04:47:41;;;;;;;2.70;2.50;;;11.80;99.90;;;;;;4932085;29;20104;-77
2022/05/22 04:50:08;;;;;;;2.80;2.45;;;11.90;99.90;;;;;;4934755;29;20543;-77
2022/05/22 04:52:34;;;;;;;2.70;2.50;;;12.00;99.90;;;;;;4931449;29;20027;-77
2022/05/22 04:55:00;;;;;;;3.03;2.65;;;12.10;99.90;;;;;;4928773;29;20130;-77
2022/05/22 04:57:25;;;;;;;2.20;2.10;;;12.20;99.90;;;;;;4937181;29;20036;-77
2022/05/22 04:59:51;;;;;;;4.10;2.50;;;12.40;99.90;;;;;;4935362;29;20048;-77
2022/05/22 05:02:16;;;;;;;2.92;2.40;;;12.40;99.90;;;;;;4932213;29;20040;-77
2022/05/22 05:04:42;;;;;;;3.58;2.95;;;12.60;99.90;;;;;;4933284;29;20039;-77
2022/05/22 05:07:09;;;;;;;2.95;2.70;;;12.60;99.90;;;;;;4939254;29;20486;-77
2022/05/22 05:09:36;;;;;;;2.97;2.78;;;12.60;99.90;;;;;;4933468;29;20411;-77
2022/05/22 05:12:05;;;;;;;8.73;2.67;;;12.60;99.90;;;;;;4931063;29;20435;-76
2022/05/22 05:14:30;;;;;;;2.90;2.67;;;12.60;99.90;;;;;;4929365;29;20040;-77
2022/05/22 05:16:56;;;;;;;3.65;3.35;;;12.80;99.90;;;;;;4927338;29;20039;-77
2022/05/22 05:19:21;;;;;;;3.42;3.13;;;12.80;99.90;;;;;;4933487;29;20040;-77
2022/05/22 05:21:47;;;;;;;4.30;3.03;;;12.90;99.90;;;;;;4926325;29;20119;-77
2022/05/22 05:24:13;;;;;;;3.88;2.75;;;13.00;99.90;;;;;;4932144;29;20082;-77
2022/05/22 05:26:38;;;;;;;3.50;3.20;;;13.10;99.90;;;;;;4929729;29;20439;-77
2022/05/22 05:29:04;;;;;;;4.20;3.80;;;13.20;99.90;;;;;;4929135;29;20035;-77
2022/05/22 05:31:30;;;;;;;3.35;3.05;;;13.30;99.90;;;;;;4931755;29;20051;-77
2022/05/22 05:33:55;;;;;;;3.20;2.90;;;13.40;99.90;;;;;;4935548;29;20036;-77
2022/05/22 05:36:21;;;;;;;3.38;3.10;;;13.40;99.90;;;;;;4931586;29;20481;-77
2022/05/22 05:38:47;;;;;;;4.05;3.13;;;13.40;99.90;;;;;;4935001;29;20035;-77
2022/05/22 05:41:12;;;;;;;4.70;3.17;;;13.60;99.90;;;;;;4935327;29;20140;-77
2022/05/22 05:43:38;;;;;;;4.53;3.33;;;13.70;99.90;;;;;;4918620;29;20031;-77
2022/05/22 05:46:04;;;;;;;3.25;2.78;;;13.80;99.90;;;;;;4933079;29;20044;-77
2022/05/22 05:48:29;;;;;;;3.63;3.08;;;13.90;99.90;;;;;;4934734;29;20047;-77
2022/05/22 05:50:55;;;;;;;3.83;3.47;;;14.10;99.90;;;;;;4933192;29;20047;-77
2022/05/22 05:53:21;;;;;;;6.50;3.30;;;14.30;99.90;;;;;;4934336;29;20509;-77
2022/05/22 05:55:47;;;;;;;3.40;3.10;;;14.50;99.90;;;;;;4933280;29;20031;-77
2022/05/22 05:58:14;;;;;;;3.72;3.42;;;14.70;99.90;;;;;;4935159;29;20450;-77
2022/05/22 06:00:39;;;;;;;4.97;3.72;;;14.80;99.90;;;;;;4933315;29;20102;-78
2022/05/22 06:03:07;;;;;;;3.50;3.20;;;14.80;99.90;;;;;;4934416;29;20122;-78
2022/05/22 06:05:32;;;;;;;3.67;3.38;;;14.80;99.90;;;;;;4931198;29;20093;-77
2022/05/22 06:07:58;;;;;;;6.55;3.83;;;15.00;99.90;;;;;;4916262;29;20546;-76
2022/05/22 06:10:24;;;;;;;3.72;3.35;;;15.30;99.90;;;;;;4932351;29;20056;-77
2022/05/22 06:12:50;;;;;;;3.78;3.38;;;15.50;99.90;;;;;;4929758;29;20063;-77
2022/05/22 06:15:16;;;;;;;4.28;3.30;;;15.70;99.90;;;;;;4930352;29;20035;-78
2022/05/22 06:17:44;;;;;;;3.25;3.00;;;15.90;99.90;;;;;;4934194;29;20053;-78
2022/05/22 06:20:11;;;;;;;;;;;16.00;99.90;;;;;;4931520;29;20035;-77
2022/05/22 06:22:37;;;;;;;3.50;3.00;;;16.20;99.90;;;;;;4932750;29;19926;-77
2022/05/22 06:25:05;;;;;;;3.28;2.97;;;16.30;99.90;;;;;;4932223;29;20127;-78
2022/05/22 06:27:31;;;;;;;;;;;16.40;99.90;;;;;;4932720;29;20036;-78
2022/05/22 06:29:56;;;;;;;3.78;3.25;;;16.50;97.40;;;;;;4931958;29;20580;-77
2022/05/22 06:32:22;;;;;;;3.83;3.40;;;16.70;97.90;;;;;;4928591;29;20046;-78
2022/05/22 06:34:49;;;;;;;3.22;2.83;;;16.90;97.30;;;;;;4931834;29;20032;-78
2022/05/22 06:37:19;;;;;;;3.10;2.80;;;17.20;97.50;;;;;;4935695;29;20387;-78
2022/05/22 06:39:53;;;;;;;4.72;3.03;;;17.20;97.20;;;;;;4933697;29;20109;-78
2022/05/22 06:42:23;;;;;;;3.42;3.10;;;17.50;94.60;;;;;;4936151;29;20074;-78
2022/05/22 06:44:58;;;;;;;5.38;3.58;;;17.60;94.30;;;;;;4935755;29;20036;-78
2022/05/22 06:47:25;;;;;;;5.15;3.03;;;17.60;94.20;;;;;;4932203;29;20546;-77
2022/05/22 06:49:52;;;;;;;4.80;2.78;;;17.80;92.80;;;;;;4933828;29;20380;-78
2022/05/22 06:52:18;;;;;;;5.47;3.25;;;17.70;92.50;;;;;;4929000;29;20040;-78
2022/05/22 06:54:44;;;;;;;4.35;3.30;;;17.90;92.00;;;;;;4933837;29;20390;-78
2022/05/22 06:57:10;;;;;;;3.40;3.10;;;17.90;93.20;;;;;;4937002;29;20042;-78
2022/05/22 06:59:36;;;;;;;3.90;2.90;;;18.10;92.20;;;;;;4919967;29;20042;-78
2022/05/22 07:02:04;;;;;;;4.68;3.38;;;18.10;92.50;;;;;;4917820;29;20047;-78
2022/05/22 07:04:30;;;;;;;3.90;3.25;;;18.30;93.30;;;;;;4931164;29;20047;-78
2022/05/22 07:06:56;;;;;;;4.93;3.22;;;18.20;93.20;;;;;;4933303;29;20478;-78
2022/05/22 07:09:21;;;;;;;3.88;3.47;;;18.20;93.30;;;;;;4936571;29;20053;-78
2022/05/22 07:11:49;;;;;;;3.53;3.00;;;18.30;92.10;;;;;;4936632;29;20483;-77
2022/05/22 07:14:15;;;;;;;3.08;2.78;;;18.20;92.60;;;;;;4933938;29;20051;-77
2022/05/22 07:16:42;;;;;;;4.80;3.00;;;18.40;91.80;;;;;;4917979;29;20043;-77
2022/05/22 07:19:09;;;;;;;3.40;3.10;;;18.60;91.80;;;;;;4929330;29;20032;-77
2022/05/22 07:21:35;;;;;;;3.97;2.38;;;18.90;85.50;;;;;;4935191;29;20186;-77
2022/05/22 07:24:00;;;;;;;3.58;2.55;;;19.00;88.90;;;;;;4934584;29;20246;-77
2022/05/22 07:26:27;;;;;;;3.67;2.80;;;19.30;90.40;;;;;;4933546;29;20103;-77
2022/05/22 07:28:53;;;;;;;3.40;2.70;;;19.40;81.40;;;;;;4933753;29;20038;-77
2022/05/22 07:31:21;;;;;;;3.00;2.70;;;19.50;84.80;;;;;;4931499;29;20458;-77
2022/05/22 07:33:47;;;;;;;5.90;2.35;;;19.40;83.00;;;;;;4932492;29;20032;-77
2022/05/22 07:36:13;;;;;;;3.28;2.97;;;19.60;83.50;;;;;;4932552;29;20028;-77
2022/05/22 07:38:39;;;;;;;2.50;2.30;;;19.80;90.00;;;;;;4931821;29;20464;-77
2022/05/22 07:41:05;;;;;;;3.10;2.55;;;20.00;81.10;;;;;;4937867;29;20023;-77
2022/05/22 07:43:31;;;;;;;2.40;2.20;;;19.70;77.20;;;;;;4918374;29;20072;-77
2022/05/22 07:45:57;;;;;;;2.50;2.03;;;19.80;74.80;;;;;;4931418;29;20047;-77
2022/05/22 07:48:23;;;;;;;1.80;1.70;;;19.80;71.00;;;;;;4914250;29;20406;-77
2022/05/22 07:50:57;;;;;;;3.60;1.92;;;19.50;59.90;;;;;;4931884;29;20040;-77
2022/05/22 07:53:23;;;;;;;1.70;1.60;;;19.80;63.90;;;;;;4934538;29;20073;-77
2022/05/22 07:55:49;;;;;;;5.18;1.92;;;20.00;67.20;;;;;;4938794;29;20031;-77
2022/05/22 07:58:15;;;;;;;3.63;1.40;;;20.30;64.50;;;;;;4936235;29;20027;-77
2022/05/22 08:00:41;;;;;;;3.05;2.03;;;20.00;74.10;;;;;;4933049;29;20032;-77
2022/05/22 08:03:12;;;;;;;2.78;2.15;;;20.30;72.60;;;;;;4934279;29;20034;-77
2022/05/22 08:05:38;;;;;;;2.20;1.77;;;20.60;72.90;;;;;;4934062;29;20036;-77
2022/05/22 08:08:04;;;;;;;2.00;1.80;;;20.90;64.40;;;;;;4934976;29;20046;-77
2022/05/22 08:10:30;;;;;;;3.28;1.70;;;20.70;68.20;;;;;;4935626;29;20129;-78
2022/05/22 08:12:55;;;;;;;2.75;2.13;;;20.40;62.80;;;;;;4935956;29;20036;-77
2022/05/22 08:15:24;;;;;;;2.30;1.80;;;20.10;68.10;;;;;;4932829;29;20031;-77
2022/05/22 08:17:50;;;;;;;1.83;1.52;;;19.90;70.90;;;;;;4929573;29;20039;-77
2022/05/22 08:20:18;;;;;;;5.25;2.00;;;19.80;71.00;;;;;;4916244;29;20043;-77
2022/05/22 08:22:46;;;;;;;2.15;1.75;;;19.90;70.00;;;;;;4922049;29;20159;-76
2022/05/22 08:25:14;;;;;;;1.93;1.80;;;19.80;71.70;;;;;;4927373;29;20039;-77
2022/05/22 08:27:41;;;;;;;2.65;1.58;;;20.00;66.30;;;;;;4930176;29;20391;-77
2022/05/22 08:30:07;;;;;;;2.00;1.80;;;20.10;66.60;;;;;;4925822;29;20490;-77
2022/05/22 08:32:40;;;;;;;1.95;1.60;;;20.20;68.00;;;;;;4928681;29;20047;-77
2022/05/22 08:35:07;;;;;;;1.90;1.70;;;20.20;69.80;;;;;;4928502;29;20050;-77
2022/05/22 08:37:34;;;;;;;1.87;1.70;;;20.10;68.50;;;;;;4913633;29;20485;-76
2022/05/22 08:40:00;;;;;;;1.98;1.70;;;20.30;74.30;;;;;;4931290;29;20039;-76
2022/05/22 08:42:38;;;;;;;3.88;1.52;;;20.70;69.70;;;;;;4913664;29;20712;-77
2022/05/22 08:45:09;;;;;;;2.42;1.60;;;21.10;60.80;;;;;;4929750;29;20467;-77
2022/05/22 08:47:42;;;;;;;1.50;1.38;;;21.00;53.80;;;;;;4929557;29;20588;-77
2022/05/22 08:50:11;;;;;;;2.25;1.50;;;21.10;56.30;;;;;;4926817;29;20040;-76
2022/05/22 08:52:45;;;;;;;2.35;1.45;;;21.70;54.80;;;;;;4927523;29;20036;-76
2022/05/22 08:55:20;;;;;;;2.63;1.63;;;21.80;54.50;;;;;;4928252;29;20345;-76
2022/05/22 09:00:40;;;;;;;1.60;1.50;;;21.70;53.20;;;;;;4928783;29;20039;-77
2022/05/22 09:03:18;;;;;;;1.37;1.27;;;21.40;54.10;;;;;;4930866;29;20611;-77
2022/05/22 09:05:45;;;;;;;1.83;1.40;;;21.60;53.50;;;;;;4932629;29;20643;-77
2022/05/22 09:08:40;;;;;;;1.40;1.30;;;22.10;55.10;;;;;;4932102;29;20134;-77
2022/05/22 09:11:28;;;;;;;1.52;1.42;;;22.20;55.50;;;;;;4933348;29;20438;-77
2022/05/22 09:14:09;;;;;;;1.60;1.50;;;22.20;51.90;;;;;;4935117;29;20432;-78
2022/05/22 09:17:01;;;;;;;3.25;1.40;;;22.20;52.80;;;;;;4932882;29;20122;-77
2022/05/22 09:19:54;;;;;;;1.63;1.52;;;22.20;57.60;;;;;;4935299;29;20036;-77
2022/05/22 09:22:24;;;;;;;2.10;1.50;;;22.50;53.70;;;;;;4934895;29;20028;-77
2022/05/22 09:24:49;;;;;;;3.08;1.80;;;22.00;48.90;;;;;;4935613;29;20037;-76
2022/05/22 09:27:28;;;;;;;1.48;1.38;;;21.80;53.90;;;;;;4935275;29;20031;-76
2022/05/22 09:29:57;;;;;;;1.40;1.30;;;21.80;52.90;;;;;;4935637;29;20442;-77
2022/05/22 09:32:47;;;;;;;1.50;1.40;;;21.80;54.10;;;;;;4935700;29;20542;-77
2022/05/22 09:35:30;;;;;;;1.92;1.70;;;21.90;53.90;;;;;;4935341;29;20087;-77
2022/05/22 09:37:59;;;;;;;2.80;1.40;;;21.80;54.90;;;;;;4936290;29;20036;-77
2022/05/22 09:40:45;;;;;;;1.70;1.60;;;21.70;50.40;;;;;;4935307;29;20115;-77
2022/05/22 09:43:51;;;;;;;1.92;1.42;;;22.10;52.80;;;;;;4936729;29;20538;-77
2022/05/22 09:46:48;;;;;;;4.55;1.85;;;22.00;55.40;;;;;;4936137;29;20047;-77
2022/05/22 09:49:37;;;;;;;2.28;1.30;;;22.10;51.70;;;;;;4933880;29;20131;-78
2022/05/22 09:52:19;;;;;;;2.30;1.17;;;22.40;55.00;;;;;;4935231;29;20054;-77
2022/05/22 09:55:19;;;;;;;2.03;1.30;;;22.40;50.60;;;;;;4918518;29;20136;-77
2022/05/22 09:58:16;;;;;;;1.30;1.30;;;22.30;52.20;;;;;;4935768;29;20035;-77
2022/05/22 10:01:07;;;;;;;1.95;1.38;;;22.20;51.40;;;;;;4924063;29;21116;-77
2022/05/22 10:03:56;;;;;;;1.30;1.20;;;22.50;49.70;;;;;;4934912;29;20119;-77
2022/05/22 10:06:59;;;;;;;1.20;1.20;;;22.90;51.80;;;;;;4935809;29;20046;-78
2022/05/22 10:09:59;;;;;;;1.60;1.17;;;22.90;46.90;;;;;;4935417;29;20035;-79
2022/05/22 10:12:37;;;;;;;1.30;1.13;;;23.40;47.30;;;;;;4929302;29;20051;-79
2022/05/22 10:15:37;;;;;;;1.20;1.10;;;24.00;48.00;;;;;;4937709;29;20039;-79
2022/05/22 10:18:21;;;;;;;1.98;1.20;;;24.40;45.80;;;;;;4936879;29;20050;-77
2022/05/22 10:21:21;;;;;;;2.03;1.50;;;23.70;42.40;;;;;;4933969;29;20119;-78
2022/05/22 10:24:25;;;;;;;2.17;1.20;;;23.50;45.40;;;;;;4931732;29;20419;-77
2022/05/22 10:27:29;;;;;;;2.33;1.15;;;23.20;46.70;;;;;;4932389;29;20043;-77
2022/05/22 10:30:26;;;;;;;1.00;1.00;;;23.60;41.40;;;;;;4933775;29;20043;-77
2022/05/22 10:32:57;;;;;;;;;;;23.20;41.40;;;;;;4921667;29;20086;-78
2022/05/22 10:35:47;;;;;;;2.53;1.02;;;22.50;40.90;;;;;;4934687;29;20558;-79
2022/05/22 10:38:12;;;;;;;2.10;1.00;;;22.30;45.20;;;;;;4935588;29;20031;-78
2022/05/22 10:43:36;;;;;;;1.88;1.17;;;22.20;41.40;;;;;;4934079;29;20067;-78
2022/05/22 10:46:02;;;;;;;1.48;1.30;;;22.20;44.80;;;;;;4934561;29;20043;-78
2022/05/22 10:48:31;;;;;;;1.92;1.30;;;22.30;48.20;;;;;;4936700;29;20514;-79
2022/05/22 10:51:11;;;;;;;1.98;1.20;;;22.20;46.40;;;;;;4933520;29;20047;-78
2022/05/22 10:53:50;;;;;;;2.38;1.10;;;22.30;45.10;;;;;;4932307;29;20045;-79
2022/05/22 10:56:25;;;;;;;1.40;1.30;;;22.20;43.20;;;;;;4934578;29;20114;-79
2022/05/22 10:59:17;;;;;;;1.25;1.20;;;22.50;43.40;;;;;;4933291;29;20051;-78
2022/05/22 11:01:43;;;;;;;3.95;1.40;;;22.30;45.90;;;;;;4931732;29;20046;-78
2022/05/22 11:04:16;;;;;;;3.22;1.40;;;22.70;46.30;;;;;;4933995;29;20028;-77
2022/05/22 11:06:57;;;;;;;1.40;1.30;;;22.60;45.50;;;;;;4933845;29;20091;-78
2022/05/22 11:09:25;;;;;;;1.10;1.10;;;22.60;45.50;;;;;;4934663;29;20035;-77
2022/05/22 11:11:51;;;;;;;2.13;1.33;;;22.30;46.30;;;;;;4915282;29;20370;-77
2022/05/22 11:14:21;;;;;;;1.48;1.33;;;22.60;45.80;;;;;;4915062;29;20179;-78
2022/05/22 11:16:47;;;;;;;1.42;1.10;;;23.00;45.10;;;;;;4914985;29;20043;-77
2022/05/22 11:19:21;;;;;;;1.25;1.25;;;23.00;44.60;;;;;;4915587;29;20031;-78
2022/05/22 11:22:27;;;;;;;1.05;1.05;;;22.30;41.60;;;;;;4913596;29;20881;-77
2022/05/22 11:25:09;;;;;;;1.27;1.00;;;22.60;43.40;;;;;;4914913;29;20571;-81
2022/05/22 11:27:44;;;;;;;2.80;1.30;;;22.60;44.60;;;;;;4914652;29;20044;-77
2022/05/22 11:30:22;;;;;;;1.30;1.25;;;22.80;49.30;;;;;;4915066;29;20063;-77
2022/05/22 11:33:00;;;;;;;1.45;1.05;;;22.80;46.00;;;;;;4913652;29;20091;-77
2022/05/22 11:35:44;;;;;;;1.40;1.10;;;22.70;44.90;;;;;;4917488;29;20119;-77
2022/05/22 11:38:14;;;;;;;1.33;1.15;;;22.80;41.50;;;;;;4914461;29;20036;-78
2022/05/22 11:41:06;;;;;;;1.15;1.15;;;22.70;46.80;;;;;;4916612;29;20391;-77
2022/05/22 11:43:59;;;;;;;1.40;1.10;;;22.70;48.10;;;;;;4899553;29;20056;-77
2022/05/22 11:46:43;;;;;;;1.52;1.20;;;22.60;44.30;;;;;;4912693;29;20045;-77
2022/05/22 11:49:39;;;;;;;2.38;1.10;;;22.80;46.60;;;;;;4914879;29;20059;-77
2022/05/22 11:55:19;;;;;;;1.30;1.20;;;22.70;48.20;;;;;;4912747;29;20127;-78
2022/05/22 11:58:22;;;;;;;2.20;1.60;;;22.50;43.90;;;;;;4913596;29;20047;-77
2022/05/22 12:01:11;;;;;;;3.15;1.40;;;22.50;43.30;;;;;;4913939;29;20070;-77
2022/05/22 12:03:52;;;;;;;1.20;1.10;;;22.70;45.30;;;;;;4907842;29;20466;-77
2022/05/22 12:06:45;;;;;;;0.90;0.90;;;22.70;47.60;;;;;;4915340;29;20040;-77
2022/05/22 12:09:29;;;;;;;1.40;1.13;;;22.70;44.00;;;;;;4913504;29;20040;-77
2022/05/22 12:12:04;;;;;;;1.52;1.20;;;22.60;40.60;;;;;;4927296;29;20402;-77
2022/05/22 12:14:51;;;;;;;1.20;1.10;;;22.60;43.00;;;;;;4932274;29;20094;-77
2022/05/22 12:17:34;;;;;;;2.30;1.10;;;22.70;43.10;;;;;;4932284;29;20058;-77
2022/05/22 12:20:05;;;;;;;2.30;1.30;;;23.00;42.60;;;;;;4930201;29;20063;-77
2022/05/22 12:25:24;;;;;;;1.70;1.48;;;23.00;42.30;;;;;;4932586;29;20038;-78
2022/05/22 12:27:52;;;;;;;2.65;1.48;;;22.90;44.70;;;;;;4933348;29;20056;-77
2022/05/22 12:30:37;;;;;;;2.20;1.33;;;22.80;48.90;;;;;;4930073;29;20035;-83
2022/05/22 12:33:11;;;;;;;2.03;1.27;;;22.80;49.20;;;;;;4935560;29;20039;-77
2022/05/22 12:35:41;;;;;;;1.70;1.60;;;22.60;50.00;;;;;;4913293;29;20031;-80
2022/05/22 12:38:09;;;;;;;1.83;1.33;;;22.60;58.10;;;;;;4932072;29;20095;-81
2022/05/22 12:40:47;;;;;;;1.50;1.40;;;22.60;50.70;;;;;;4934543;29;20451;-80
2022/05/22 12:43:15;;;;;;;;;;;22.50;48.50;;;;;;4938112;29;20035;-81
2022/05/22 12:45:41;;;;;;;3.22;1.42;;;22.50;48.00;;;;;;4919828;29;19922;-81
2022/05/22 12:48:12;;;;;;;1.40;1.30;;;22.60;52.60;;;;;;4931938;29;20071;-82
2022/05/22 12:50:51;;;;;;;1.83;1.42;;;22.50;55.30;;;;;;4932790;29;20057;-82
2022/05/22 12:53:29;;;;;;;2.80;1.52;;;22.60;52.30;;;;;;4933526;29;20079;-83
2022/05/22 12:55:56;;;;;;;1.70;1.60;;;22.60;55.10;;;;;;4920402;29;20039;-83
2022/05/22 12:58:39;;;;;;;1.52;1.42;;;22.70;53.50;;;;;;4935331;29;20522;-83
2022/05/22 13:01:22;;;;;;;1.83;1.58;;;22.80;53.00;;;;;;4934584;29;20147;-83
2022/05/22 13:03:51;;;;;;;2.55;1.40;;;22.90;56.60;;;;;;4918214;29;20032;-83
2022/05/22 13:06:23;;;;;;;1.92;1.60;;;22.70;44.90;;;;;;4935575;29;20360;-83
2022/05/22 13:08:58;;;;;;;1.50;1.40;;;22.80;45.20;;;;;;4916446;29;20059;-83
2022/05/22 13:11:50;;;;;;;1.40;1.30;;;22.80;53.10;;;;;;4933996;29;20566;-83
2022/05/22 13:14:58;;;;;;;1.35;1.25;;;22.80;53.60;;;;;;4934903;29;20039;-83
2022/05/22 13:17:53;;;;;;;1.38;1.27;;;22.80;51.00;;;;;;4928651;29;20055;-83
2022/05/22 13:20:43;;;;;;;1.35;1.25;;;22.80;47.50;;;;;;4932202;29;20119;-82
2022/05/22 13:23:33;;;;;;;1.73;1.33;;;22.60;47.30;;;;;;4934816;29;20035;-83